sensor_id;sensor_type;location;lat;lon;timestamp;pressure;altitude;pressure_sealevel;temperature;humidity
65190;BME280;51777;53.570;9.984;2023-03-13T00:01:23;99976.28;;;7.29;100.00
65190;BME280;51777;53.570;9.984;2023-03-13T00:03:48;99975.47;;;7.28;100.00
65190;BME280;51777;53.570;9.984;2023-03-13T00:06:15;99971.13;;;7.29;100.00
65190;BME280;51777;53.570;9.984;2023-03-13T00:08:40;99960.84;;;7.29;100.00
65190;BME280;51777;53.570;9.984;2023-03-13T00:11:08;99951.22;;;7.31;100.00
65190;BME280;51777;53.570;9.984;2023-03-13T00:13:34;99945.28;;;7.30;100.00
65190;BME280;51777;53.570;9.984;2023-03-13T00:16:07;99948.66;;;7.31;100.00
65190;BME280;51777;53.570;9.984;2023-03-13T00:18:33;99940.00;;;7.32;100.00
65190;BME280;51777;53.570;9.984;2023-03-13T00:21:04;99934.31;;;7.28;100.00
65190;BME280;51777;53.570;9.984;2023-03-13T00:23:31;99933.22;;;7.31;100.00
65190;BME280;51777;53.570;9.984;2023-03-13T00:25:59;99934.03;;;7.31;100.00
65190;BME280;51777;53.570;9.984;2023-03-13T00:28:27;99927.16;;;7.32;100.00
65190;BME280;51777;53.570;9.984;2023-03-13T00:31:04;99934.88;;;7.32;100.00
65190;BME280;51777;53.570;9.984;2023-03-13T00:33:34;99918.09;;;7.28;100.00
65190;BME280;51777;53.570;9.984;2023-03-13T00:36:02;99922.94;;;7.31;100.00
65190;BME280;51777;53.570;9.984;2023-03-13T00:38:29;99922.69;;;7.34;100.00
65190;BME280;51777;53.570;9.984;2023-03-13T00:43:28;99907.59;;;7.39;100.00
65190;BME280;51777;53.570;9.984;2023-03-13T00:45:54;99902.31;;;7.41;100.00
65190;BME280;51777;53.570;9.984;2023-03-13T00:48:20;99902.69;;;7.46;100.00
65190;BME280;51777;53.570;9.984;2023-03-13T00:50:45;99885.50;;;7.46;100.00
65190;BME280;51777;53.570;9.984;2023-03-13T00:53:11;99879.41;;;7.47;100.00
65190;BME280;51777;53.570;9.984;2023-03-13T00:55:36;99880.06;;;7.49;100.00
65190;BME280;51777;53.570;9.984;2023-03-13T00:58:01;99877.34;;;7.51;100.00
65190;BME280;51777;53.570;9.984;2023-03-13T01:00:27;99867.84;;;7.51;100.00
65190;BME280;51777;53.570;9.984;2023-03-13T01:02:52;99869.47;;;7.52;100.00
65190;BME280;51777;53.570;9.984;2023-03-13T01:05:18;99869.16;;;7.55;100.00
65190;BME280;51777;53.570;9.984;2023-03-13T01:07:43;99868.38;;;7.55;100.00
65190;BME280;51777;53.570;9.984;2023-03-13T01:10:09;99865.00;;;7.54;100.00
65190;BME280;51777;53.570;9.984;2023-03-13T01:12:34;99868.09;;;7.58;100.00
65190;BME280;51777;53.570;9.984;2023-03-13T01:15:00;99864.56;;;7.59;100.00
65190;BME280;51777;53.570;9.984;2023-03-13T01:17:25;99859.25;;;7.60;100.00
65190;BME280;51777;53.570;9.984;2023-03-13T01:19:54;99847.06;;;7.62;100.00
65190;BME280;51777;53.570;9.984;2023-03-13T01:22:20;99845.78;;;7.66;100.00
65190;BME280;51777;53.570;9.984;2023-03-13T01:24:45;99847.28;;;7.69;100.00
65190;BME280;51777;53.570;9.984;2023-03-13T01:27:14;99844.72;;;7.69;100.00
65190;BME280;51777;53.570;9.984;2023-03-13T01:29:39;99831.69;;;7.71;100.00
65190;BME280;51777;53.570;9.984;2023-03-13T01:32:05;99828.16;;;7.72;100.00
65190;BME280;51777;53.570;9.984;2023-03-13T01:34:30;99823.97;;;7.71;100.00
65190;BME280;51777;53.570;9.984;2023-03-13T01:36:56;99814.34;;;7.73;100.00
65190;BME280;51777;53.570;9.984;2023-03-13T01:39:21;99813.38;;;7.74;100.00
65190;BME280;51777;53.570;9.984;2023-03-13T01:41:46;99801.16;;;7.76;100.00
65190;BME280;51777;53.570;9.984;2023-03-13T01:44:23;99796.53;;;7.79;100.00
65190;BME280;51777;53.570;9.984;2023-03-13T01:46:49;99781.22;;;7.78;100.00
65190;BME280;51777;53.570;9.984;2023-03-13T01:49:26;99776.09;;;7.78;100.00
65190;BME280;51777;53.570;9.984;2023-03-13T01:51:57;99769.97;;;7.79;100.00
65190;BME280;51777;53.570;9.984;2023-03-13T01:54:28;99763.22;;;7.78;100.00
65190;BME280;51777;53.570;9.984;2023-03-13T01:57:28;99766.59;;;7.78;100.00
65190;BME280;51777;53.570;9.984;2023-03-13T02:00:03;99754.53;;;7.79;100.00
65190;BME280;51777;53.570;9.984;2023-03-13T02:02:33;99751.00;;;7.80;100.00
65190;BME280;51777;53.570;9.984;2023-03-13T02:05:00;99742.31;;;7.81;100.00
65190;BME280;51777;53.570;9.984;2023-03-13T02:07:39;99734.59;;;7.81;100.00
65190;BME280;51777;53.570;9.984;2023-03-13T02:10:06;99729.63;;;7.79;100.00
65190;BME280;51777;53.570;9.984;2023-03-13T02:12:35;99726.06;;;7.80;100.00
65190;BME280;51777;53.570;9.984;2023-03-13T02:15:12;99716.59;;;7.81;100.00
65190;BME280;51777;53.570;9.984;2023-03-13T02:17:39;99711.31;;;7.82;100.00
65190;BME280;51777;53.570;9.984;2023-03-13T02:20:06;99717.28;;;7.83;100.00
65190;BME280;51777;53.570;9.984;2023-03-13T02:28:00;99694.59;;;7.86;100.00
65190;BME280;51777;53.570;9.984;2023-03-13T02:30:27;99694.59;;;7.86;100.00
65190;BME280;51777;53.570;9.984;2023-03-13T02:32:53;99685.13;;;7.87;100.00
65190;BME280;51777;53.570;9.984;2023-03-13T02:35:21;99686.88;;;7.86;100.00
65190;BME280;51777;53.570;9.984;2023-03-13T02:37:50;99684.16;;;7.88;100.00
65190;BME280;51777;53.570;9.984;2023-03-13T02:40:25;99667.41;;;7.84;100.00
65190;BME280;51777;53.570;9.984;2023-03-13T02:42:52;99663.72;;;7.86;100.00
65190;BME280;51777;53.570;9.984;2023-03-13T02:45:19;99661.78;;;7.88;100.00
65190;BME280;51777;53.570;9.984;2023-03-13T02:47:44;99658.41;;;7.88;100.00
65190;BME280;51777;53.570;9.984;2023-03-13T02:50:11;99657.78;;;7.86;100.00
65190;BME280;51777;53.570;9.984;2023-03-13T02:52:41;99650.06;;;7.86;100.00
65190;BME280;51777;53.570;9.984;2023-03-13T02:55:12;99648.44;;;7.85;100.00
65190;BME280;51777;53.570;9.984;2023-03-13T02:57:39;99644.25;;;7.84;100.00
65190;BME280;51777;53.570;9.984;2023-03-13T03:00:05;99631.38;;;7.84;100.00
65190;BME280;51777;53.570;9.984;2023-03-13T03:02:31;99627.38;;;7.81;100.00
65190;BME280;51777;53.570;9.984;2023-03-13T03:04:57;99621.38;;;7.81;100.00
65190;BME280;51777;53.570;9.984;2023-03-13T03:07:22;99617.34;;;7.78;100.00
65190;BME280;51777;53.570;9.984;2023-03-13T03:09:48;99616.56;;;7.78;100.00
65190;BME280;51777;53.570;9.984;2023-03-13T03:12:13;99608.69;;;7.79;100.00
65190;BME280;51777;53.570;9.984;2023-03-13T03:14:39;99604.34;;;7.80;100.00
65190;BME280;51777;53.570;9.984;2023-03-13T03:17:04;99600.16;;;7.79;100.00
65190;BME280;51777;53.570;9.984;2023-03-13T03:19:30;99596.63;;;7.80;100.00
65190;BME280;51777;53.570;9.984;2023-03-13T03:21:55;99598.22;;;7.81;100.00
65190;BME280;51777;53.570;9.984;2023-03-13T03:24:20;99578.59;;;7.80;100.00
65190;BME280;51777;53.570;9.984;2023-03-13T03:26:46;99584.44;;;7.82;100.00
65190;BME280;51777;53.570;9.984;2023-03-13T03:29:11;99581.84;;;7.82;100.00
65190;BME280;51777;53.570;9.984;2023-03-13T03:31:36;99574.94;;;7.82;100.00
65190;BME280;51777;53.570;9.984;2023-03-13T03:34:02;99564.66;;;7.82;100.00
65190;BME280;51777;53.570;9.984;2023-03-13T03:36:28;99560.47;;;7.81;100.00
65190;BME280;51777;53.570;9.984;2023-03-13T03:38:53;99555.31;;;7.81;100.00
65190;BME280;51777;53.570;9.984;2023-03-13T03:41:19;99555.44;;;7.80;100.00
65190;BME280;51777;53.570;9.984;2023-03-13T03:43:45;99549.50;;;7.79;100.00
65190;BME280;51777;53.570;9.984;2023-03-13T03:46:11;99548.84;;;7.77;100.00
65190;BME280;51777;53.570;9.984;2023-03-13T03:48:37;99530.19;;;7.75;100.00
65190;BME280;51777;53.570;9.984;2023-03-13T03:51:03;99521.84;;;7.73;100.00
65190;BME280;51777;53.570;9.984;2023-03-13T03:53:28;99532.13;;;7.73;100.00
65190;BME280;51777;53.570;9.984;2023-03-13T03:55:54;99524.72;;;7.70;100.00
65190;BME280;51777;53.570;9.984;2023-03-13T03:58:20;99519.72;;;7.69;100.00
65190;BME280;51777;53.570;9.984;2023-03-13T04:00:46;99517.97;;;7.69;100.00
65190;BME280;51777;53.570;9.984;2023-03-13T04:03:12;99505.25;;;7.68;100.00
65190;BME280;51777;53.570;9.984;2023-03-13T04:05:38;99506.38;;;7.65;100.00
65190;BME280;51777;53.570;9.984;2023-03-13T04:08:04;99496.56;;;7.60;100.00
65190;BME280;51777;53.570;9.984;2023-03-13T04:10:29;99495.44;;;7.63;100.00
65190;BME280;51777;53.570;9.984;2023-03-13T04:12:55;99491.91;;;7.64;100.00
65190;BME280;51777;53.570;9.984;2023-03-13T04:15:20;99483.53;;;7.62;100.00
65190;BME280;51777;53.570;9.984;2023-03-13T04:17:45;99471.47;;;7.62;100.00
65190;BME280;51777;53.570;9.984;2023-03-13T04:20:11;99470.50;;;7.63;100.00
65190;BME280;51777;53.570;9.984;2023-03-13T04:22:38;99453.47;;;7.62;100.00
65190;BME280;51777;53.570;9.984;2023-03-13T04:25:04;99445.13;;;7.60;100.00
65190;BME280;51777;53.570;9.984;2023-03-13T04:27:31;99447.69;;;7.60;100.00
65190;BME280;51777;53.570;9.984;2023-03-13T04:29:57;99427.09;;;7.60;100.00
65190;BME280;51777;53.570;9.984;2023-03-13T04:32:22;99420.03;;;7.62;100.00
65190;BME280;51777;53.570;9.984;2023-03-13T04:34:48;99409.44;;;7.57;100.00
65190;BME280;51777;53.570;9.984;2023-03-13T04:37:13;99406.06;;;7.57;100.00
65190;BME280;51777;53.570;9.984;2023-03-13T04:39:38;99407.78;;;7.56;100.00
65190;BME280;51777;53.570;9.984;2023-03-13T04:42:04;99390.13;;;7.53;100.00
65190;BME280;51777;53.570;9.984;2023-03-13T04:44:32;99386.09;;;7.51;100.00
65190;BME280;51777;53.570;9.984;2023-03-13T04:46:58;99367.28;;;7.50;100.00
65190;BME280;51777;53.570;9.984;2023-03-13T04:49:23;99370.81;;;7.49;100.00
65190;BME280;51777;53.570;9.984;2023-03-13T04:51:48;99362.16;;;7.50;100.00
65190;BME280;51777;53.570;9.984;2023-03-13T04:54:14;99358.94;;;7.48;100.00
65190;BME280;51777;53.570;9.984;2023-03-13T04:56:39;99356.38;;;7.48;100.00
65190;BME280;51777;53.570;9.984;2023-03-13T04:59:05;99345.13;;;7.49;100.00
65190;BME280;51777;53.570;9.984;2023-03-13T05:01:30;99340.13;;;7.48;100.00
65190;BME280;51777;53.570;9.984;2023-03-13T05:03:56;99319.56;;;7.48;100.00
65190;BME280;51777;53.570;9.984;2023-03-13T05:06:21;99312.97;;;7.45;100.00
65190;BME280;51777;53.570;9.984;2023-03-13T05:08:47;99298.81;;;7.41;100.00
65190;BME280;51777;53.570;9.984;2023-03-13T05:11:12;99284.34;;;7.40;100.00
65190;BME280;51777;53.570;9.984;2023-03-13T05:13:38;99278.25;;;7.41;100.00
65190;BME280;51777;53.570;9.984;2023-03-13T05:16:04;99265.38;;;7.41;100.00
65190;BME280;51777;53.570;9.984;2023-03-13T05:18:29;99264.09;;;7.37;100.00
65190;BME280;51777;53.570;9.984;2023-03-13T05:20:55;99257.03;;;7.39;100.00
65190;BME280;51777;53.570;9.984;2023-03-13T05:23:20;99256.22;;;7.39;100.00
65190;BME280;51777;53.570;9.984;2023-03-13T05:25:46;99246.75;;;7.39;100.00
65190;BME280;51777;53.570;9.984;2023-03-13T05:28:11;99245.78;;;7.40;100.00
65190;BME280;51777;53.570;9.984;2023-03-13T05:30:36;99244.81;;;7.41;100.00
65190;BME280;51777;53.570;9.984;2023-03-13T05:33:02;99247.09;;;7.44;100.00
65190;BME280;51777;53.570;9.984;2023-03-13T05:35:28;99246.41;;;7.42;100.00
65190;BME280;51777;53.570;9.984;2023-03-13T05:37:53;99245.31;;;7.45;100.00
65190;BME280;51777;53.570;9.984;2023-03-13T05:40:19;99230.53;;;7.47;100.00
65190;BME280;51777;53.570;9.984;2023-03-13T05:42:44;99234.06;;;7.46;100.00
65190;BME280;51777;53.570;9.984;2023-03-13T05:45:10;99220.41;;;7.45;100.00
65190;BME280;51777;53.570;9.984;2023-03-13T05:47:36;99211.72;;;7.46;100.00
65190;BME280;51777;53.570;9.984;2023-03-13T05:50:04;99214.13;;;7.48;100.00
65190;BME280;51777;53.570;9.984;2023-03-13T05:52:31;99206.25;;;7.49;100.00
65190;BME280;51777;53.570;9.984;2023-03-13T05:54:56;99185.66;;;7.49;100.00
65190;BME280;51777;53.570;9.984;2023-03-13T05:57:22;99192.41;;;7.50;100.00
65190;BME280;51777;53.570;9.984;2023-03-13T05:59:47;99187.91;;;7.52;100.00
65190;BME280;51777;53.570;9.984;2023-03-13T06:02:13;99187.75;;;7.54;100.00
65190;BME280;51777;53.570;9.984;2023-03-13T06:04:39;99191.75;;;7.56;100.00
65190;BME280;51777;53.570;9.984;2023-03-13T06:07:05;99190.63;;;7.59;100.00
65190;BME280;51777;53.570;9.984;2023-03-13T06:09:30;99174.06;;;7.61;100.00
65190;BME280;51777;53.570;9.984;2023-03-13T06:11:56;99174.88;;;7.62;100.00
65190;BME280;51777;53.570;9.984;2023-03-13T06:14:21;99168.59;;;7.64;100.00
65190;BME280;51777;53.570;9.984;2023-03-13T06:16:47;99173.09;;;7.71;100.00
65190;BME280;51777;53.570;9.984;2023-03-13T06:19:12;99154.75;;;7.74;100.00
65190;BME280;51777;53.570;9.984;2023-03-13T06:21:38;99160.50;;;7.76;100.00
65190;BME280;51777;53.570;9.984;2023-03-13T06:24:04;99161.78;;;7.80;100.00
65190;BME280;51777;53.570;9.984;2023-03-13T06:26:30;99165.81;;;7.82;100.00
65190;BME280;51777;53.570;9.984;2023-03-13T06:28:55;99163.53;;;7.87;100.00
65190;BME280;51777;53.570;9.984;2023-03-13T06:31:20;99166.56;;;7.91;100.00
65190;BME280;51777;53.570;9.984;2023-03-13T06:33:46;99136.81;;;7.97;100.00
65190;BME280;51777;53.570;9.984;2023-03-13T06:36:12;99136.59;;;8.06;100.00
65190;BME280;51777;53.570;9.984;2023-03-13T06:38:37;99135.28;;;8.10;100.00
65190;BME280;51777;53.570;9.984;2023-03-13T06:41:03;99130.56;;;8.22;100.00
65190;BME280;51777;53.570;9.984;2023-03-13T06:43:29;99131.00;;;8.25;100.00
65190;BME280;51777;53.570;9.984;2023-03-13T06:45:55;99121.66;;;8.33;100.00
65190;BME280;51777;53.570;9.984;2023-03-13T06:48:20;99119.19;;;8.39;100.00
65190;BME280;51777;53.570;9.984;2023-03-13T06:50:47;99112.75;;;8.43;100.00
65190;BME280;51777;53.570;9.984;2023-03-13T06:53:18;99104.31;;;8.49;100.00
65190;BME280;51777;53.570;9.984;2023-03-13T06:55:43;99098.31;;;8.57;100.00
65190;BME280;51777;53.570;9.984;2023-03-13T06:58:09;99098.41;;;8.64;100.00
65190;BME280;51777;53.570;9.984;2023-03-13T07:00:34;99074.88;;;8.67;100.00
65190;BME280;51777;53.570;9.984;2023-03-13T07:03:00;99081.75;;;8.74;100.00
65190;BME280;51777;53.570;9.984;2023-03-13T07:05:26;99091.69;;;8.77;100.00
65190;BME280;51777;53.570;9.984;2023-03-13T07:07:51;99098.41;;;8.87;100.00
65190;BME280;51777;53.570;9.984;2023-03-13T07:10:17;99092.09;;;8.89;100.00
65190;BME280;51777;53.570;9.984;2023-03-13T07:12:42;99082.22;;;8.93;100.00
65190;BME280;51777;53.570;9.984;2023-03-13T07:15:09;99068.38;;;8.94;100.00
65190;BME280;51777;53.570;9.984;2023-03-13T07:17:34;99075.13;;;8.95;100.00
65190;BME280;51777;53.570;9.984;2023-03-13T07:19:59;99064.66;;;8.96;100.00
65190;BME280;51777;53.570;9.984;2023-03-13T07:22:30;99065.09;;;9.00;100.00
65190;BME280;51777;53.570;9.984;2023-03-13T07:24:55;99060.19;;;9.05;100.00
65190;BME280;51777;53.570;9.984;2023-03-13T07:27:21;99064.41;;;9.06;100.00
65190;BME280;51777;53.570;9.984;2023-03-13T07:29:47;99057.91;;;9.10;100.00
65190;BME280;51777;53.570;9.984;2023-03-13T07:32:13;99064.28;;;9.14;100.00
65190;BME280;51777;53.570;9.984;2023-03-13T07:34:39;99057.00;;;9.18;100.00
65190;BME280;51777;53.570;9.984;2023-03-13T07:37:05;99049.72;;;9.21;100.00
65190;BME280;51777;53.570;9.984;2023-03-13T07:39:30;99052.13;;;9.23;100.00
65190;BME280;51777;53.570;9.984;2023-03-13T07:41:56;99041.44;;;9.26;100.00
65190;BME280;51777;53.570;9.984;2023-03-13T07:44:21;99048.81;;;9.29;100.00
65190;BME280;51777;53.570;9.984;2023-03-13T07:46:47;99049.88;;;9.34;100.00
65190;BME280;51777;53.570;9.984;2023-03-13T07:49:14;99039.81;;;9.39;100.00
65190;BME280;51777;53.570;9.984;2023-03-13T07:51:40;99034.47;;;9.41;100.00
65190;BME280;51777;53.570;9.984;2023-03-13T07:54:05;99025.84;;;9.49;100.00
65190;BME280;51777;53.570;9.984;2023-03-13T07:56:31;99020.94;;;9.54;100.00
65190;BME280;51777;53.570;9.984;2023-03-13T07:58:56;99018.81;;;9.57;100.00
65190;BME280;51777;53.570;9.984;2023-03-13T08:01:26;99035.16;;;9.64;100.00
65190;BME280;51777;53.570;9.984;2023-03-13T08:03:57;99025.63;;;9.65;100.00
65190;BME280;51777;53.570;9.984;2023-03-13T08:06:28;99018.59;;;9.74;100.00
65190;BME280;51777;53.570;9.984;2023-03-13T08:08:56;99012.53;;;9.81;100.00
65190;BME280;51777;53.570;9.984;2023-03-13T08:11:25;99009.94;;;9.81;100.00
65190;BME280;51777;53.570;9.984;2023-03-13T08:13:52;99012.84;;;9.93;100.00
65190;BME280;51777;53.570;9.984;2023-03-13T08:16:23;99013.66;;;9.93;100.00
65190;BME280;51777;53.570;9.984;2023-03-13T08:18:52;98996.69;;;10.06;100.00
65190;BME280;51777;53.570;9.984;2023-03-13T08:21:23;99007.84;;;10.13;100.00
65190;BME280;51777;53.570;9.984;2023-03-13T08:23:52;99007.47;;;10.16;100.00
65190;BME280;51777;53.570;9.984;2023-03-13T08:26:20;98998.84;;;10.23;100.00
65190;BME280;51777;53.570;9.984;2023-03-13T08:28:47;98990.38;;;10.29;100.00
65190;BME280;51777;53.570;9.984;2023-03-13T08:31:19;98997.13;;;10.31;100.00
65190;BME280;51777;53.570;9.984;2023-03-13T08:33:46;98996.75;;;10.34;100.00
65190;BME280;51777;53.570;9.984;2023-03-13T08:36:20;99004.50;;;10.34;100.00
65190;BME280;51777;53.570;9.984;2023-03-13T08:38:48;99006.13;;;10.41;100.00
65190;BME280;51777;53.570;9.984;2023-03-13T08:41:16;98991.50;;;10.48;100.00
65190;BME280;51777;53.570;9.984;2023-03-13T08:43:42;98985.53;;;10.48;100.00
65190;BME280;51777;53.570;9.984;2023-03-13T08:46:08;98981.75;;;10.50;100.00
65190;BME280;51777;53.570;9.984;2023-03-13T08:48:33;98995.94;;;10.54;100.00
65190;BME280;51777;53.570;9.984;2023-03-13T08:51:11;98973.88;;;10.58;100.00
65190;BME280;51777;53.570;9.984;2023-03-13T08:53:38;98973.09;;;10.65;100.00
65190;BME280;51777;53.570;9.984;2023-03-13T08:56:05;98986.88;;;10.72;100.00
65190;BME280;51777;53.570;9.984;2023-03-13T08:58:31;98983.31;;;10.73;100.00
65190;BME280;51777;53.570;9.984;2023-03-13T09:01:01;98974.03;;;10.85;100.00
65190;BME280;51777;53.570;9.984;2023-03-13T09:03:36;98978.22;;;10.86;100.00
65190;BME280;51777;53.570;9.984;2023-03-13T09:06:01;98970.91;;;10.96;100.00
65190;BME280;51777;53.570;9.984;2023-03-13T09:08:29;98967.94;;;10.99;100.00
65190;BME280;51777;53.570;9.984;2023-03-13T09:10:56;98963.97;;;11.03;100.00
65190;BME280;51777;53.570;9.984;2023-03-13T09:13:23;98962.63;;;11.14;100.00
65190;BME280;51777;53.570;9.984;2023-03-13T09:15:56;98968.41;;;11.16;100.00
65190;BME280;51777;53.570;9.984;2023-03-13T09:18:23;98965.47;;;11.26;100.00
65190;BME280;51777;53.570;9.984;2023-03-13T09:20:49;98971.88;;;11.30;100.00
65190;BME280;51777;53.570;9.984;2023-03-13T09:23:14;98966.50;;;11.31;100.00
65190;BME280;51777;53.570;9.984;2023-03-13T09:25:41;98961.72;;;11.35;100.00
65190;BME280;51777;53.570;9.984;2023-03-13T09:28:06;98969.69;;;11.33;100.00
65190;BME280;51777;53.570;9.984;2023-03-13T09:30:32;98959.53;;;11.38;100.00
65190;BME280;51777;53.570;9.984;2023-03-13T09:32:57;98972.13;;;11.48;100.00
65190;BME280;51777;53.570;9.984;2023-03-13T09:35:22;98977.50;;;11.46;100.00
65190;BME280;51777;53.570;9.984;2023-03-13T09:37:48;98968.34;;;11.44;100.00
65190;BME280;51777;53.570;9.984;2023-03-13T09:40:14;98964.56;;;11.53;100.00
65190;BME280;51777;53.570;9.984;2023-03-13T09:42:49;98963.00;;;11.59;100.00
65190;BME280;51777;53.570;9.984;2023-03-13T09:45:39;98965.38;;;11.54;100.00
65190;BME280;51777;53.570;9.984;2023-03-13T09:48:12;98979.53;;;11.58;100.00
65190;BME280;51777;53.570;9.984;2023-03-13T09:50:43;98975.53;;;11.55;100.00
65190;BME280;51777;53.570;9.984;2023-03-13T09:56:44;98975.34;;;11.63;100.00
65190;BME280;51777;53.570;9.984;2023-03-13T09:59:26;98976.56;;;11.67;100.00
65190;BME280;51777;53.570;9.984;2023-03-13T10:01:54;98973.19;;;11.67;100.00
65190;BME280;51777;53.570;9.984;2023-03-13T10:04:28;98971.00;;;11.70;100.00
65190;BME280;51777;53.570;9.984;2023-03-13T10:06:55;98980.34;;;11.78;100.00
65190;BME280;51777;53.570;9.984;2023-03-13T10:09:28;98969.19;;;11.77;100.00
65190;BME280;51777;53.570;9.984;2023-03-13T10:12:11;98981.59;;;11.82;100.00
65190;BME280;51777;53.570;9.984;2023-03-13T10:17:48;98989.56;;;11.87;100.00
65190;BME280;51777;53.570;9.984;2023-03-13T10:20:33;98983.84;;;12.05;100.00
65190;BME280;51777;53.570;9.984;2023-03-13T10:23:04;98987.00;;;12.07;100.00
65190;BME280;51777;53.570;9.984;2023-03-13T10:25:33;99011.13;;;12.08;100.00
65190;BME280;51777;53.570;9.984;2023-03-13T10:28:00;99012.69;;;12.02;100.00
65190;BME280;51777;53.570;9.984;2023-03-13T10:30:27;98999.38;;;12.12;100.00
65190;BME280;51777;53.570;9.984;2023-03-13T10:35:38;98994.53;;;13.91;100.00
65190;BME280;51777;53.570;9.984;2023-03-13T10:38:16;99008.28;;;13.60;100.00
65190;BME280;51777;53.570;9.984;2023-03-13T10:40:43;98997.81;;;13.79;100.00
65190;BME280;51777;53.570;9.984;2023-03-13T10:43:21;99005.16;;;13.89;100.00
65190;BME280;51777;53.570;9.984;2023-03-13T10:45:49;99000.66;;;15.33;100.00
65190;BME280;51777;53.570;9.984;2023-03-13T10:48:19;98996.34;;;16.28;100.00
65190;BME280;51777;53.570;9.984;2023-03-13T10:50:48;99000.97;;;17.20;100.00
65190;BME280;51777;53.570;9.984;2023-03-13T10:56:02;98974.56;;;15.21;100.00
65190;BME280;51777;53.570;9.984;2023-03-13T10:58:50;98981.00;;;14.82;100.00
65190;BME280;51777;53.570;9.984;2023-03-13T11:01:18;98985.06;;;14.28;100.00
65190;BME280;51777;53.570;9.984;2023-03-13T11:03:46;98977.72;;;13.93;100.00
65190;BME280;51777;53.570;9.984;2023-03-13T11:06:39;98988.00;;;13.81;100.00
65190;BME280;51777;53.570;9.984;2023-03-13T11:09:14;98988.47;;;14.03;100.00
65190;BME280;51777;53.570;9.984;2023-03-13T11:14:18;98987.88;;;13.63;100.00
65190;BME280;51777;53.570;9.984;2023-03-13T11:16:53;98999.41;;;13.74;100.00
65190;BME280;51777;53.570;9.984;2023-03-13T11:19:32;98978.44;;;14.57;100.00
65190;BME280;51777;53.570;9.984;2023-03-13T11:22:52;98984.28;;;15.62;100.00
65190;BME280;51777;53.570;9.984;2023-03-13T11:28:16;98963.78;;;14.99;100.00
65190;BME280;51777;53.570;9.984;2023-03-13T11:38:41;98947.94;;;16.32;100.00
65190;BME280;51777;53.570;9.984;2023-03-13T11:41:43;98960.34;;;15.95;100.00
65190;BME280;51777;53.570;9.984;2023-03-13T11:44:27;98955.06;;;15.42;100.00
65190;BME280;51777;53.570;9.984;2023-03-13T11:49:51;98940.88;;;15.26;100.00
65190;BME280;51777;53.570;9.984;2023-03-13T11:52:37;98945.69;;;15.22;100.00
65190;BME280;51777;53.570;9.984;2023-03-13T11:55:28;98945.28;;;15.25;100.00
65190;BME280;51777;53.570;9.984;2023-03-13T11:58:22;98946.53;;;15.95;100.00
65190;BME280;51777;53.570;9.984;2023-03-13T12:06:33;98939.88;;;16.22;100.00
65190;BME280;51777;53.570;9.984;2023-03-13T12:09:15;98946.66;;;16.23;100.00
65190;BME280;51777;53.570;9.984;2023-03-13T12:11:54;98928.97;;;16.49;100.00
65190;BME280;51777;53.570;9.984;2023-03-13T12:14:38;98939.28;;;16.90;100.00
65190;BME280;51777;53.570;9.984;2023-03-13T12:17:11;98922.84;;;16.78;100.00
65190;BME280;51777;53.570;9.984;2023-03-13T12:19:50;98932.84;;;16.81;100.00
65190;BME280;51777;53.570;9.984;2023-03-13T12:22:24;98931.47;;;16.67;100.00
65190;BME280;51777;53.570;9.984;2023-03-13T12:24:57;98938.09;;;17.10;100.00
65190;BME280;51777;53.570;9.984;2023-03-13T12:27:52;98920.78;;;16.92;100.00
65190;BME280;51777;53.570;9.984;2023-03-13T12:32:58;98933.78;;;17.60;100.00
65190;BME280;51777;53.570;9.984;2023-03-13T12:35:28;98943.78;;;18.26;100.00
65190;BME280;51777;53.570;9.984;2023-03-13T12:38:16;98951.34;;;17.20;100.00
65190;BME280;51777;53.570;9.984;2023-03-13T12:43:18;98930.41;;;19.04;100.00
65190;BME280;51777;53.570;9.984;2023-03-13T12:56:50;98932.66;;;18.18;100.00
65190;BME280;51777;53.570;9.984;2023-03-13T13:01:53;98912.19;;;18.32;100.00
65190;BME280;51777;53.570;9.984;2023-03-13T13:04:25;98920.25;;;17.75;100.00
65190;BME280;51777;53.570;9.984;2023-03-13T13:07:04;98914.94;;;17.87;100.00
65190;BME280;51777;53.570;9.984;2023-03-13T13:12:18;98907.88;;;18.04;100.00
65190;BME280;51777;53.570;9.984;2023-03-13T13:22:52;98889.09;;;17.74;100.00
65190;BME280;51777;53.570;9.984;2023-03-13T13:25:33;98894.22;;;18.58;100.00
65190;BME280;51777;53.570;9.984;2023-03-13T13:30:47;98901.75;;;17.82;100.00
65190;BME280;51777;53.570;9.984;2023-03-13T13:35:46;98858.91;;;17.21;100.00
65190;BME280;51777;53.570;9.984;2023-03-13T13:38:31;98865.16;;;17.82;100.00
65190;BME280;51777;53.570;9.984;2023-03-13T13:41:24;98850.50;;;18.36;100.00
65190;BME280;51777;53.570;9.984;2023-03-13T13:44:23;98850.25;;;17.66;100.00
65190;BME280;51777;53.570;9.984;2023-03-13T13:46:49;98852.97;;;18.65;100.00
65190;BME280;51777;53.570;9.984;2023-03-13T13:49:20;98857.41;;;18.86;100.00
65190;BME280;51777;53.570;9.984;2023-03-13T13:57:14;98834.50;;;17.94;100.00
65190;BME280;51777;53.570;9.984;2023-03-13T13:59:47;98842.97;;;18.62;100.00
65190;BME280;51777;53.570;9.984;2023-03-13T14:04:51;98822.97;;;18.99;100.00
65190;BME280;51777;53.570;9.984;2023-03-13T14:07:23;98835.34;;;18.38;100.00
65190;BME280;51777;53.570;9.984;2023-03-13T14:10:00;98840.25;;;18.13;100.00
65190;BME280;51777;53.570;9.984;2023-03-13T14:12:33;98829.09;;;18.83;100.00
65190;BME280;51777;53.570;9.984;2023-03-13T14:15:15;98820.75;;;18.42;100.00
65190;BME280;51777;53.570;9.984;2023-03-13T14:18:15;98820.19;;;18.84;100.00
65190;BME280;51777;53.570;9.984;2023-03-13T14:21:05;98811.19;;;18.53;100.00
65190;BME280;51777;53.570;9.984;2023-03-13T14:23:42;98810.06;;;18.93;100.00
65190;BME280;51777;53.570;9.984;2023-03-13T14:26:14;98814.41;;;19.09;100.00
65190;BME280;51777;53.570;9.984;2023-03-13T14:28:52;98808.16;;;18.61;100.00
65190;BME280;51777;53.570;9.984;2023-03-13T14:33:58;98803.09;;;18.55;100.00
65190;BME280;51777;53.570;9.984;2023-03-13T14:36:25;98800.75;;;18.58;100.00